sensor_id;sensor_type;location;lat;lon;timestamp;P1;durP1;ratioP1;P2;durP2;ratioP2
78648;SDS011;67962;47.310;9.642;2023-05-29T00:02:13;10.82;;;3.08;;
78648;SDS011;67962;47.310;9.642;2023-05-29T00:04:39;7.20;;;3.35;;
78648;SDS011;67962;47.310;9.642;2023-05-29T00:07:05;6.68;;;2.83;;
78648;SDS011;67962;47.310;9.642;2023-05-29T00:09:31;6.20;;;3.15;;
78648;SDS011;67962;47.310;9.642;2023-05-29T00:11:56;7.57;;;3.33;;
78648;SDS011;67962;47.310;9.642;2023-05-29T00:14:22;8.98;;;3.13;;
78648;SDS011;67962;47.310;9.642;2023-05-29T00:16:49;9.02;;;3.88;;
78648;SDS011;67962;47.310;9.642;2023-05-29T00:19:16;4.85;;;2.90;;
78648;SDS011;67962;47.310;9.642;2023-05-29T00:21:42;10.60;;;3.25;;
78648;SDS011;67962;47.310;9.642;2023-05-29T00:30:18;5.15;;;3.13;;
78648;SDS011;67962;47.310;9.642;2023-05-29T00:32:43;8.32;;;3.15;;
78648;SDS011;67962;47.310;9.642;2023-05-29T00:35:10;6.47;;;3.40;;
78648;SDS011;67962;47.310;9.642;2023-05-29T00:37:36;8.35;;;3.33;;
78648;SDS011;67962;47.310;9.642;2023-05-29T00:40:02;10.93;;;3.28;;
78648;SDS011;67962;47.310;9.642;2023-05-29T00:42:28;12.90;;;3.30;;
78648;SDS011;67962;47.310;9.642;2023-05-29T00:44:54;9.02;;;3.08;;
78648;SDS011;67962;47.310;9.642;2023-05-29T00:47:20;9.88;;;3.53;;
78648;SDS011;67962;47.310;9.642;2023-05-29T00:49:46;8.75;;;3.75;;
78648;SDS011;67962;47.310;9.642;2023-05-29T00:52:12;9.55;;;3.40;;
78648;SDS011;67962;47.310;9.642;2023-05-29T00:54:38;7.15;;;3.13;;
78648;SDS011;67962;47.310;9.642;2023-05-29T00:57:07;9.07;;;3.28;;
78648;SDS011;67962;47.310;9.642;2023-05-29T01:03:37;9.85;;;3.53;;
78648;SDS011;67962;47.310;9.642;2023-05-29T01:06:04;5.90;;;2.90;;
78648;SDS011;67962;47.310;9.642;2023-05-29T01:08:29;7.90;;;3.30;;
78648;SDS011;67962;47.310;9.642;2023-05-29T01:10:56;7.13;;;3.25;;
78648;SDS011;67962;47.310;9.642;2023-05-29T01:13:30;6.28;;;3.15;;
78648;SDS011;67962;47.310;9.642;2023-05-29T01:16:14;9.52;;;3.40;;
78648;SDS011;67962;47.310;9.642;2023-05-29T01:18:57;6.80;;;3.38;;
78648;SDS011;67962;47.310;9.642;2023-05-29T01:21:27;8.38;;;3.30;;
78648;SDS011;67962;47.310;9.642;2023-05-29T01:24:31;7.25;;;3.10;;
78648;SDS011;67962;47.310;9.642;2023-05-29T01:27:07;6.95;;;3.53;;
78648;SDS011;67962;47.310;9.642;2023-05-29T01:29:39;8.02;;;3.20;;
78648;SDS011;67962;47.310;9.642;2023-05-29T01:32:07;7.07;;;3.22;;
78648;SDS011;67962;47.310;9.642;2023-05-29T01:34:33;8.15;;;3.30;;
78648;SDS011;67962;47.310;9.642;2023-05-29T01:36:59;7.22;;;3.30;;
78648;SDS011;67962;47.310;9.642;2023-05-29T01:39:25;6.03;;;3.03;;
78648;SDS011;67962;47.310;9.642;2023-05-29T01:41:51;6.55;;;3.63;;
78648;SDS011;67962;47.310;9.642;2023-05-29T01:44:18;5.20;;;2.80;;
78648;SDS011;67962;47.310;9.642;2023-05-29T01:46:45;6.80;;;2.90;;
78648;SDS011;67962;47.310;9.642;2023-05-29T01:49:11;6.55;;;3.20;;
78648;SDS011;67962;47.310;9.642;2023-05-29T01:51:39;8.93;;;3.65;;
78648;SDS011;67962;47.310;9.642;2023-05-29T01:54:05;5.55;;;2.92;;
78648;SDS011;67962;47.310;9.642;2023-05-29T01:56:32;12.07;;;3.42;;
78648;SDS011;67962;47.310;9.642;2023-05-29T01:58:58;7.53;;;3.40;;
78648;SDS011;67962;47.310;9.642;2023-05-29T02:01:26;7.68;;;3.20;;
78648;SDS011;67962;47.310;9.642;2023-05-29T02:03:52;5.18;;;3.08;;
78648;SDS011;67962;47.310;9.642;2023-05-29T02:06:18;5.40;;;3.03;;
78648;SDS011;67962;47.310;9.642;2023-05-29T02:08:44;6.60;;;2.88;;
78648;SDS011;67962;47.310;9.642;2023-05-29T02:11:09;5.40;;;3.13;;
78648;SDS011;67962;47.310;9.642;2023-05-29T02:13:35;7.57;;;3.30;;
78648;SDS011;67962;47.310;9.642;2023-05-29T02:16:02;10.13;;;3.50;;
78648;SDS011;67962;47.310;9.642;2023-05-29T02:18:28;5.82;;;3.10;;
78648;SDS011;67962;47.310;9.642;2023-05-29T02:20:53;6.95;;;3.63;;
78648;SDS011;67962;47.310;9.642;2023-05-29T02:23:19;6.78;;;3.08;;
78648;SDS011;67962;47.310;9.642;2023-05-29T02:25:45;9.88;;;2.90;;
78648;SDS011;67962;47.310;9.642;2023-05-29T02:28:11;6.65;;;3.40;;
78648;SDS011;67962;47.310;9.642;2023-05-29T02:30:36;8.15;;;3.90;;
78648;SDS011;67962;47.310;9.642;2023-05-29T02:33:02;8.18;;;3.17;;
78648;SDS011;67962;47.310;9.642;2023-05-29T02:35:28;8.10;;;3.25;;
78648;SDS011;67962;47.310;9.642;2023-05-29T02:37:54;7.57;;;3.35;;
78648;SDS011;67962;47.310;9.642;2023-05-29T02:40:20;5.78;;;3.05;;
78648;SDS011;67962;47.310;9.642;2023-05-29T02:42:46;6.95;;;2.97;;
78648;SDS011;67962;47.310;9.642;2023-05-29T02:45:12;7.05;;;3.47;;
78648;SDS011;67962;47.310;9.642;2023-05-29T02:47:38;5.63;;;3.10;;
78648;SDS011;67962;47.310;9.642;2023-05-29T02:50:04;9.63;;;3.13;;
78648;SDS011;67962;47.310;9.642;2023-05-29T02:52:31;5.55;;;2.78;;
78648;SDS011;67962;47.310;9.642;2023-05-29T02:54:57;8.57;;;2.95;;
78648;SDS011;67962;47.310;9.642;2023-05-29T02:57:23;8.27;;;3.60;;
78648;SDS011;67962;47.310;9.642;2023-05-29T02:59:50;6.78;;;3.30;;
78648;SDS011;67962;47.310;9.642;2023-05-29T03:02:16;6.35;;;3.20;;
78648;SDS011;67962;47.310;9.642;2023-05-29T03:04:45;8.93;;;3.47;;
78648;SDS011;67962;47.310;9.642;2023-05-29T03:07:11;11.02;;;3.50;;
78648;SDS011;67962;47.310;9.642;2023-05-29T03:09:37;5.50;;;3.25;;
78648;SDS011;67962;47.310;9.642;2023-05-29T03:12:04;6.40;;;2.95;;
78648;SDS011;67962;47.310;9.642;2023-05-29T03:14:30;8.27;;;3.33;;
78648;SDS011;67962;47.310;9.642;2023-05-29T03:17:01;5.95;;;3.53;;
78648;SDS011;67962;47.310;9.642;2023-05-29T03:19:29;9.20;;;3.10;;
78648;SDS011;67962;47.310;9.642;2023-05-29T03:21:54;5.70;;;3.25;;
78648;SDS011;67962;47.310;9.642;2023-05-29T03:24:20;5.68;;;2.78;;
78648;SDS011;67962;47.310;9.642;2023-05-29T03:26:48;6.97;;;3.30;;
78648;SDS011;67962;47.310;9.642;2023-05-29T03:29:15;8.38;;;3.40;;
78648;SDS011;67962;47.310;9.642;2023-05-29T03:31:41;7.38;;;2.95;;
78648;SDS011;67962;47.310;9.642;2023-05-29T03:34:07;5.47;;;3.30;;
78648;SDS011;67962;47.310;9.642;2023-05-29T03:36:32;8.55;;;3.40;;
78648;SDS011;67962;47.310;9.642;2023-05-29T03:39:01;5.28;;;3.13;;
78648;SDS011;67962;47.310;9.642;2023-05-29T03:41:27;8.90;;;3.30;;
78648;SDS011;67962;47.310;9.642;2023-05-29T03:43:53;6.15;;;3.33;;
78648;SDS011;67962;47.310;9.642;2023-05-29T03:46:19;10.80;;;3.72;;
78648;SDS011;67962;47.310;9.642;2023-05-29T03:48:44;7.45;;;3.33;;
78648;SDS011;67962;47.310;9.642;2023-05-29T03:51:10;8.98;;;3.05;;
78648;SDS011;67962;47.310;9.642;2023-05-29T03:53:36;6.95;;;3.35;;
78648;SDS011;67962;47.310;9.642;2023-05-29T03:56:01;5.38;;;2.65;;
78648;SDS011;67962;47.310;9.642;2023-05-29T03:58:27;8.57;;;3.17;;
78648;SDS011;67962;47.310;9.642;2023-05-29T04:00:53;6.32;;;3.10;;
78648;SDS011;67962;47.310;9.642;2023-05-29T04:03:19;6.07;;;3.10;;
78648;SDS011;67962;47.310;9.642;2023-05-29T04:05:45;6.47;;;3.33;;
78648;SDS011;67962;47.310;9.642;2023-05-29T04:08:10;6.35;;;2.97;;
78648;SDS011;67962;47.310;9.642;2023-05-29T04:10:38;6.20;;;3.05;;
78648;SDS011;67962;47.310;9.642;2023-05-29T04:13:04;6.57;;;3.33;;
78648;SDS011;67962;47.310;9.642;2023-05-29T04:15:30;8.50;;;3.55;;
78648;SDS011;67962;47.310;9.642;2023-05-29T04:17:58;7.95;;;3.30;;
78648;SDS011;67962;47.310;9.642;2023-05-29T04:20:24;8.75;;;3.15;;
78648;SDS011;67962;47.310;9.642;2023-05-29T04:22:50;5.22;;;3.20;;
78648;SDS011;67962;47.310;9.642;2023-05-29T04:25:16;6.32;;;3.53;;
78648;SDS011;67962;47.310;9.642;2023-05-29T04:27:43;9.10;;;3.38;;
78648;SDS011;67962;47.310;9.642;2023-05-29T04:30:13;9.00;;;3.00;;
78648;SDS011;67962;47.310;9.642;2023-05-29T04:32:40;5.70;;;3.50;;
78648;SDS011;67962;47.310;9.642;2023-05-29T04:35:06;7.18;;;3.60;;
78648;SDS011;67962;47.310;9.642;2023-05-29T04:37:32;7.65;;;3.53;;
78648;SDS011;67962;47.310;9.642;2023-05-29T04:40:11;8.27;;;3.17;;
78648;SDS011;67962;47.310;9.642;2023-05-29T04:42:38;7.63;;;3.03;;
78648;SDS011;67962;47.310;9.642;2023-05-29T04:45:09;8.63;;;3.45;;
78648;SDS011;67962;47.310;9.642;2023-05-29T04:47:38;7.85;;;3.30;;
78648;SDS011;67962;47.310;9.642;2023-05-29T04:50:11;6.05;;;3.17;;
78648;SDS011;67962;47.310;9.642;2023-05-29T04:52:37;4.97;;;2.95;;
78648;SDS011;67962;47.310;9.642;2023-05-29T04:55:03;7.28;;;2.83;;
78648;SDS011;67962;47.310;9.642;2023-05-29T04:57:29;5.63;;;3.03;;
78648;SDS011;67962;47.310;9.642;2023-05-29T04:59:56;6.55;;;3.22;;
78648;SDS011;67962;47.310;9.642;2023-05-29T05:02:21;7.20;;;3.50;;
78648;SDS011;67962;47.310;9.642;2023-05-29T05:04:47;6.53;;;4.00;;
78648;SDS011;67962;47.310;9.642;2023-05-29T05:07:13;6.13;;;3.50;;
78648;SDS011;67962;47.310;9.642;2023-05-29T05:09:41;6.28;;;3.35;;
78648;SDS011;67962;47.310;9.642;2023-05-29T05:12:07;7.47;;;3.58;;
78648;SDS011;67962;47.310;9.642;2023-05-29T05:14:33;7.00;;;3.58;;
78648;SDS011;67962;47.310;9.642;2023-05-29T05:16:59;7.53;;;3.10;;
78648;SDS011;67962;47.310;9.642;2023-05-29T05:19:25;7.13;;;3.42;;
78648;SDS011;67962;47.310;9.642;2023-05-29T05:21:50;6.18;;;3.47;;
78648;SDS011;67962;47.310;9.642;2023-05-29T05:24:16;7.13;;;3.50;;
78648;SDS011;67962;47.310;9.642;2023-05-29T05:26:42;6.43;;;3.38;;
78648;SDS011;67962;47.310;9.642;2023-05-29T05:29:07;5.65;;;3.58;;
78648;SDS011;67962;47.310;9.642;2023-05-29T05:31:33;5.78;;;3.22;;
78648;SDS011;67962;47.310;9.642;2023-05-29T05:33:59;9.80;;;3.80;;
78648;SDS011;67962;47.310;9.642;2023-05-29T05:36:25;5.32;;;3.38;;
78648;SDS011;67962;47.310;9.642;2023-05-29T05:38:51;6.97;;;3.80;;
78648;SDS011;67962;47.310;9.642;2023-05-29T05:41:16;6.18;;;3.53;;
78648;SDS011;67962;47.310;9.642;2023-05-29T05:43:42;6.07;;;3.47;;
78648;SDS011;67962;47.310;9.642;2023-05-29T05:46:08;6.10;;;3.33;;
78648;SDS011;67962;47.310;9.642;2023-05-29T05:48:33;7.85;;;3.95;;
78648;SDS011;67962;47.310;9.642;2023-05-29T05:50:59;7.00;;;3.45;;
78648;SDS011;67962;47.310;9.642;2023-05-29T05:53:25;7.80;;;3.17;;
78648;SDS011;67962;47.310;9.642;2023-05-29T05:55:51;7.63;;;3.60;;
78648;SDS011;67962;47.310;9.642;2023-05-29T05:58:16;6.13;;;3.13;;
78648;SDS011;67962;47.310;9.642;2023-05-29T06:00:42;6.13;;;3.25;;
78648;SDS011;67962;47.310;9.642;2023-05-29T06:03:08;9.38;;;3.80;;
78648;SDS011;67962;47.310;9.642;2023-05-29T06:05:33;6.90;;;3.42;;
78648;SDS011;67962;47.310;9.642;2023-05-29T06:08:01;5.70;;;3.30;;
78648;SDS011;67962;47.310;9.642;2023-05-29T06:10:27;11.43;;;3.40;;
78648;SDS011;67962;47.310;9.642;2023-05-29T06:12:53;6.70;;;3.42;;
78648;SDS011;67962;47.310;9.642;2023-05-29T06:15:19;7.65;;;3.80;;
78648;SDS011;67962;47.310;9.642;2023-05-29T06:17:44;6.25;;;3.22;;
78648;SDS011;67962;47.310;9.642;2023-05-29T06:20:10;8.32;;;3.28;;
78648;SDS011;67962;47.310;9.642;2023-05-29T06:22:36;5.22;;;3.15;;
78648;SDS011;67962;47.310;9.642;2023-05-29T06:25:02;5.18;;;2.97;;
78648;SDS011;67962;47.310;9.642;2023-05-29T06:27:28;6.72;;;3.50;;
78648;SDS011;67962;47.310;9.642;2023-05-29T06:29:55;6.18;;;3.30;;
78648;SDS011;67962;47.310;9.642;2023-05-29T06:32:20;6.45;;;3.17;;
78648;SDS011;67962;47.310;9.642;2023-05-29T06:34:47;5.68;;;3.22;;
78648;SDS011;67962;47.310;9.642;2023-05-29T06:37:12;7.70;;;4.00;;
78648;SDS011;67962;47.310;9.642;2023-05-29T06:39:38;5.55;;;3.47;;
78648;SDS011;67962;47.310;9.642;2023-05-29T06:42:07;6.50;;;3.53;;
78648;SDS011;67962;47.310;9.642;2023-05-29T06:44:33;6.35;;;3.33;;
78648;SDS011;67962;47.310;9.642;2023-05-29T06:46:58;7.35;;;4.13;;
78648;SDS011;67962;47.310;9.642;2023-05-29T06:49:24;7.88;;;3.72;;
78648;SDS011;67962;47.310;9.642;2023-05-29T06:51:50;7.07;;;4.00;;
78648;SDS011;67962;47.310;9.642;2023-05-29T06:54:16;6.55;;;3.90;;
78648;SDS011;67962;47.310;9.642;2023-05-29T06:56:42;8.60;;;4.00;;
78648;SDS011;67962;47.310;9.642;2023-05-29T06:59:07;7.97;;;3.72;;
78648;SDS011;67962;47.310;9.642;2023-05-29T07:01:33;6.47;;;3.55;;
78648;SDS011;67962;47.310;9.642;2023-05-29T07:03:59;6.28;;;3.45;;
78648;SDS011;67962;47.310;9.642;2023-05-29T07:06:25;7.88;;;3.55;;
78648;SDS011;67962;47.310;9.642;2023-05-29T07:08:50;7.05;;;3.60;;
78648;SDS011;67962;47.310;9.642;2023-05-29T07:11:16;5.07;;;3.35;;
78648;SDS011;67962;47.310;9.642;2023-05-29T07:13:42;6.63;;;3.80;;
78648;SDS011;67962;47.310;9.642;2023-05-29T07:16:07;9.35;;;3.95;;
78648;SDS011;67962;47.310;9.642;2023-05-29T07:18:33;6.70;;;3.47;;
78648;SDS011;67962;47.310;9.642;2023-05-29T07:20:59;8.40;;;4.22;;
78648;SDS011;67962;47.310;9.642;2023-05-29T07:23:25;9.63;;;3.85;;
78648;SDS011;67962;47.310;9.642;2023-05-29T07:25:51;5.80;;;3.45;;
78648;SDS011;67962;47.310;9.642;2023-05-29T07:28:17;7.78;;;4.00;;
78648;SDS011;67962;47.310;9.642;2023-05-29T07:30:42;7.97;;;3.88;;
78648;SDS011;67962;47.310;9.642;2023-05-29T07:33:08;7.78;;;3.90;;
78648;SDS011;67962;47.310;9.642;2023-05-29T07:35:34;6.55;;;3.92;;
78648;SDS011;67962;47.310;9.642;2023-05-29T07:38:00;6.78;;;4.20;;
78648;SDS011;67962;47.310;9.642;2023-05-29T07:40:26;6.97;;;4.05;;
78648;SDS011;67962;47.310;9.642;2023-05-29T07:42:52;12.18;;;4.47;;
78648;SDS011;67962;47.310;9.642;2023-05-29T07:45:17;10.40;;;4.43;;
78648;SDS011;67962;47.310;9.642;2023-05-29T07:47:43;10.00;;;4.15;;
78648;SDS011;67962;47.310;9.642;2023-05-29T07:50:10;10.27;;;4.20;;
78648;SDS011;67962;47.310;9.642;2023-05-29T07:52:36;7.78;;;4.43;;
78648;SDS011;67962;47.310;9.642;2023-05-29T07:55:02;6.72;;;3.78;;
78648;SDS011;67962;47.310;9.642;2023-05-29T07:57:28;7.22;;;3.97;;
78648;SDS011;67962;47.310;9.642;2023-05-29T07:59:54;8.65;;;4.63;;
78648;SDS011;67962;47.310;9.642;2023-05-29T08:02:19;8.90;;;4.30;;
78648;SDS011;67962;47.310;9.642;2023-05-29T08:04:46;9.38;;;4.20;;
78648;SDS011;67962;47.310;9.642;2023-05-29T08:07:11;7.28;;;3.47;;
78648;SDS011;67962;47.310;9.642;2023-05-29T08:09:37;9.38;;;4.65;;
78648;SDS011;67962;47.310;9.642;2023-05-29T08:12:03;8.65;;;3.80;;
78648;SDS011;67962;47.310;9.642;2023-05-29T08:14:30;7.13;;;4.10;;
78648;SDS011;67962;47.310;9.642;2023-05-29T08:16:56;6.15;;;3.95;;
78648;SDS011;67962;47.310;9.642;2023-05-29T08:19:22;6.30;;;3.92;;
78648;SDS011;67962;47.310;9.642;2023-05-29T08:21:48;7.25;;;4.00;;
78648;SDS011;67962;47.310;9.642;2023-05-29T08:24:14;7.85;;;3.97;;
78648;SDS011;67962;47.310;9.642;2023-05-29T08:26:40;8.88;;;4.07;;
78648;SDS011;67962;47.310;9.642;2023-05-29T08:29:06;6.05;;;3.72;;
78648;SDS011;67962;47.310;9.642;2023-05-29T08:31:32;8.43;;;3.78;;
78648;SDS011;67962;47.310;9.642;2023-05-29T08:33:58;6.65;;;3.63;;
78648;SDS011;67962;47.310;9.642;2023-05-29T08:36:24;8.77;;;3.78;;
78648;SDS011;67962;47.310;9.642;2023-05-29T08:38:50;8.80;;;3.90;;
78648;SDS011;67962;47.310;9.642;2023-05-29T08:41:38;7.80;;;3.72;;
78648;SDS011;67962;47.310;9.642;2023-05-29T08:44:12;8.13;;;3.92;;
78648;SDS011;67962;47.310;9.642;2023-05-29T08:46:39;12.15;;;4.10;;
78648;SDS011;67962;47.310;9.642;2023-05-29T08:49:05;5.55;;;3.63;;
78648;SDS011;67962;47.310;9.642;2023-05-29T08:51:35;6.95;;;3.92;;
78648;SDS011;67962;47.310;9.642;2023-05-29T08:54:03;9.77;;;3.88;;
78648;SDS011;67962;47.310;9.642;2023-05-29T08:56:29;6.70;;;3.60;;
78648;SDS011;67962;47.310;9.642;2023-05-29T08:58:55;8.63;;;4.20;;
78648;SDS011;67962;47.310;9.642;2023-05-29T09:01:22;7.40;;;4.13;;
78648;SDS011;67962;47.310;9.642;2023-05-29T09:03:50;8.35;;;3.78;;
78648;SDS011;67962;47.310;9.642;2023-05-29T09:06:16;5.00;;;3.60;;
78648;SDS011;67962;47.310;9.642;2023-05-29T09:08:43;5.50;;;3.53;;
78648;SDS011;67962;47.310;9.642;2023-05-29T09:11:09;6.10;;;3.85;;
78648;SDS011;67962;47.310;9.642;2023-05-29T09:13:35;10.35;;;3.72;;
78648;SDS011;67962;47.310;9.642;2023-05-29T09:16:01;5.00;;;3.30;;
78648;SDS011;67962;47.310;9.642;2023-05-29T09:18:31;6.32;;;3.65;;
78648;SDS011;67962;47.310;9.642;2023-05-29T09:20:57;7.68;;;4.05;;
78648;SDS011;67962;47.310;9.642;2023-05-29T09:23:25;6.45;;;3.95;;
78648;SDS011;67962;47.310;9.642;2023-05-29T09:25:51;7.43;;;4.13;;
78648;SDS011;67962;47.310;9.642;2023-05-29T09:28:18;11.18;;;4.25;;
78648;SDS011;67962;47.310;9.642;2023-05-29T09:30:48;7.82;;;4.18;;
78648;SDS011;67962;47.310;9.642;2023-05-29T09:33:15;7.95;;;4.05;;
78648;SDS011;67962;47.310;9.642;2023-05-29T09:35:50;8.20;;;4.55;;
78648;SDS011;67962;47.310;9.642;2023-05-29T09:38:16;8.02;;;4.55;;
78648;SDS011;67962;47.310;9.642;2023-05-29T09:40:43;6.53;;;3.85;;
78648;SDS011;67962;47.310;9.642;2023-05-29T09:43:13;8.77;;;3.88;;
78648;SDS011;67962;47.310;9.642;2023-05-29T09:45:45;8.48;;;4.30;;
78648;SDS011;67962;47.310;9.642;2023-05-29T09:50:43;7.57;;;4.65;;
78648;SDS011;67962;47.310;9.642;2023-05-29T09:53:19;7.20;;;4.00;;
78648;SDS011;67962;47.310;9.642;2023-05-29T09:55:49;9.32;;;4.38;;
78648;SDS011;67962;47.310;9.642;2023-05-29T09:58:17;9.73;;;4.25;;
78648;SDS011;67962;47.310;9.642;2023-05-29T10:00:42;11.88;;;4.05;;
78648;SDS011;67962;47.310;9.642;2023-05-29T10:03:09;7.07;;;4.32;;
78648;SDS011;67962;47.310;9.642;2023-05-29T10:05:37;12.75;;;4.55;;
78648;SDS011;67962;47.310;9.642;2023-05-29T10:08:08;10.75;;;3.83;;
78648;SDS011;67962;47.310;9.642;2023-05-29T10:10:43;9.23;;;4.53;;
78648;SDS011;67962;47.310;9.642;2023-05-29T10:13:11;6.28;;;3.72;;
78648;SDS011;67962;47.310;9.642;2023-05-29T10:15:42;8.77;;;4.00;;
78648;SDS011;67962;47.310;9.642;2023-05-29T10:21:00;5.88;;;3.42;;
78648;SDS011;67962;47.310;9.642;2023-05-29T10:23:26;5.68;;;3.70;;
78648;SDS011;67962;47.310;9.642;2023-05-29T10:25:57;7.25;;;4.03;;
78648;SDS011;67962;47.310;9.642;2023-05-29T10:28:29;6.88;;;4.13;;
78648;SDS011;67962;47.310;9.642;2023-05-29T10:30:57;7.68;;;4.03;;
78648;SDS011;67962;47.310;9.642;2023-05-29T10:33:50;7.63;;;3.92;;
78648;SDS011;67962;47.310;9.642;2023-05-29T10:36:29;8.55;;;4.30;;
78648;SDS011;67962;47.310;9.642;2023-05-29T10:38:58;9.18;;;3.85;;
78648;SDS011;67962;47.310;9.642;2023-05-29T10:43:55;8.80;;;4.03;;
78648;SDS011;67962;47.310;9.642;2023-05-29T10:49:19;11.07;;;3.95;;
78648;SDS011;67962;47.310;9.642;2023-05-29T10:51:46;8.35;;;4.13;;
78648;SDS011;67962;47.310;9.642;2023-05-29T10:54:13;6.82;;;3.95;;
78648;SDS011;67962;47.310;9.642;2023-05-29T10:56:39;7.43;;;3.92;;
78648;SDS011;67962;47.310;9.642;2023-05-29T10:59:08;8.38;;;4.00;;
78648;SDS011;67962;47.310;9.642;2023-05-29T11:01:34;7.50;;;4.53;;
78648;SDS011;67962;47.310;9.642;2023-05-29T11:06:50;9.50;;;4.13;;
78648;SDS011;67962;47.310;9.642;2023-05-29T11:14:46;11.52;;;4.15;;
78648;SDS011;67962;47.310;9.642;2023-05-29T11:23:00;10.95;;;3.95;;
78648;SDS011;67962;47.310;9.642;2023-05-29T11:25:28;6.38;;;3.90;;
78648;SDS011;67962;47.310;9.642;2023-05-29T11:27:54;6.40;;;3.85;;
78648;SDS011;67962;47.310;9.642;2023-05-29T11:30:20;7.40;;;3.72;;
78648;SDS011;67962;47.310;9.642;2023-05-29T11:32:46;11.10;;;4.25;;
78648;SDS011;67962;47.310;9.642;2023-05-29T11:35:13;13.02;;;4.80;;
78648;SDS011;67962;47.310;9.642;2023-05-29T11:37:40;6.28;;;3.65;;
78648;SDS011;67962;47.310;9.642;2023-05-29T11:40:10;9.27;;;4.25;;
78648;SDS011;67962;47.310;9.642;2023-05-29T11:42:44;6.00;;;3.65;;
78648;SDS011;67962;47.310;9.642;2023-05-29T11:45:14;6.53;;;3.85;;
78648;SDS011;67962;47.310;9.642;2023-05-29T11:50:24;7.70;;;3.90;;
78648;SDS011;67962;47.310;9.642;2023-05-29T11:52:51;6.78;;;3.70;;
78648;SDS011;67962;47.310;9.642;2023-05-29T11:55:20;8.30;;;4.13;;
78648;SDS011;67962;47.310;9.642;2023-05-29T11:57:47;7.50;;;4.18;;
78648;SDS011;67962;47.310;9.642;2023-05-29T12:00:15;10.77;;;3.50;;
78648;SDS011;67962;47.310;9.642;2023-05-29T12:02:43;5.45;;;3.53;;
78648;SDS011;67962;47.310;9.642;2023-05-29T12:05:12;5.80;;;3.72;;
78648;SDS011;67962;47.310;9.642;2023-05-29T12:08:01;6.35;;;3.38;;
78648;SDS011;67962;47.310;9.642;2023-05-29T12:10:29;7.55;;;3.55;;
78648;SDS011;67962;47.310;9.642;2023-05-29T12:12:56;6.63;;;3.80;;
78648;SDS011;67962;47.310;9.642;2023-05-29T12:15:23;7.90;;;3.60;;
78648;SDS011;67962;47.310;9.642;2023-05-29T12:17:49;6.13;;;3.28;;
78648;SDS011;67962;47.310;9.642;2023-05-29T12:20:16;6.40;;;3.55;;
78648;SDS011;67962;47.310;9.642;2023-05-29T12:22:43;9.00;;;4.15;;
78648;SDS011;67962;47.310;9.642;2023-05-29T12:25:10;7.43;;;3.65;;
78648;SDS011;67962;47.310;9.642;2023-05-29T12:27:38;4.85;;;3.20;;
78648;SDS011;67962;47.310;9.642;2023-05-29T12:30:08;7.10;;;3.78;;
78648;SDS011;67962;47.310;9.642;2023-05-29T12:32:36;5.28;;;2.97;;
78648;SDS011;67962;47.310;9.642;2023-05-29T12:35:16;7.38;;;3.65;;
78648;SDS011;67962;47.310;9.642;2023-05-29T12:40:15;5.97;;;3.38;;
78648;SDS011;67962;47.310;9.642;2023-05-29T12:42:42;6.20;;;3.17;;
78648;SDS011;67962;47.310;9.642;2023-05-29T12:45:08;6.68;;;3.55;;
78648;SDS011;67962;47.310;9.642;2023-05-29T12:47:35;6.20;;;3.75;;
78648;SDS011;67962;47.310;9.642;2023-05-29T12:50:20;6.40;;;3.28;;
78648;SDS011;67962;47.310;9.642;2023-05-29T12:52:57;5.82;;;3.47;;
78648;SDS011;67962;47.310;9.642;2023-05-29T12:55:27;7.38;;;3.10;;
78648;SDS011;67962;47.310;9.642;2023-05-29T12:57:54;5.70;;;3.20;;
78648;SDS011;67962;47.310;9.642;2023-05-29T13:00:20;7.60;;;3.45;;
78648;SDS011;67962;47.310;9.642;2023-05-29T13:02:47;6.15;;;3.33;;
78648;SDS011;67962;47.310;9.642;2023-05-29T13:05:14;6.50;;;3.08;;
78648;SDS011;67962;47.310;9.642;2023-05-29T13:07:41;7.68;;;3.25;;
78648;SDS011;67962;47.310;9.642;2023-05-29T13:10:07;4.97;;;3.13;;
78648;SDS011;67962;47.310;9.642;2023-05-29T13:12:36;6.22;;;3.78;;
78648;SDS011;67962;47.310;9.642;2023-05-29T13:15:02;6.13;;;3.70;;
78648;SDS011;67962;47.310;9.642;2023-05-29T13:17:28;6.10;;;3.35;;
78648;SDS011;67962;47.310;9.642;2023-05-29T13:19:54;6.40;;;3.28;;
78648;SDS011;67962;47.310;9.642;2023-05-29T13:22:20;4.85;;;3.10;;
78648;SDS011;67962;47.310;9.642;2023-05-29T13:24:45;5.70;;;3.10;;
78648;SDS011;67962;47.310;9.642;2023-05-29T13:27:11;5.55;;;3.10;;
78648;SDS011;67962;47.310;9.642;2023-05-29T13:29:40;5.05;;;2.90;;
78648;SDS011;67962;47.310;9.642;2023-05-29T13:32:06;5.97;;;3.13;;
78648;SDS011;67962;47.310;9.642;2023-05-29T13:34:32;5.55;;;2.90;;
78648;SDS011;67962;47.310;9.642;2023-05-29T13:36:58;6.05;;;3.45;;
78648;SDS011;67962;47.310;9.642;2023-05-29T13:39:25;5.30;;;2.85;;
78648;SDS011;67962;47.310;9.642;2023-05-29T13:41:51;4.70;;;2.92;;
78648;SDS011;67962;47.310;9.642;2023-05-29T13:44:16;6.35;;;3.30;;
78648;SDS011;67962;47.310;9.642;2023-05-29T13:46:42;5.78;;;2.95;;
78648;SDS011;67962;47.310;9.642;2023-05-29T13:49:08;6.28;;;3.08;;
78648;SDS011;67962;47.310;9.642;2023-05-29T13:51:33;5.85;;;3.05;;
78648;SDS011;67962;47.310;9.642;2023-05-29T13:54:01;5.57;;;3.00;;
78648;SDS011;67962;47.310;9.642;2023-05-29T13:56:28;5.53;;;2.85;;
78648;SDS011;67962;47.310;9.642;2023-05-29T13:58:54;6.22;;;3.17;;
78648;SDS011;67962;47.310;9.642;2023-05-29T14:01:20;7.57;;;3.67;;
78648;SDS011;67962;47.310;9.642;2023-05-29T14:03:46;6.50;;;3.13;;
78648;SDS011;67962;47.310;9.642;2023-05-29T14:06:11;4.68;;;2.90;;
78648;SDS011;67962;47.310;9.642;2023-05-29T14:08:37;6.68;;;3.10;;
78648;SDS011;67962;47.310;9.642;2023-05-29T14:11:03;7.32;;;3.33;;
78648;SDS011;67962;47.310;9.642;2023-05-29T14:13:29;5.32;;;3.35;;
78648;SDS011;67962;47.310;9.642;2023-05-29T14:15:55;5.72;;;3.05;;
78648;SDS011;67962;47.310;9.642;2023-05-29T14:18:22;5.60;;;3.33;;
78648;SDS011;67962;47.310;9.642;2023-05-29T14:20:48;5.32;;;3.22;;
78648;SDS011;67962;47.310;9.642;2023-05-29T14:23:14;48.97;;;4.32;;
78648;SDS011;67962;47.310;9.642;2023-05-29T14:25:42;7.47;;;3.92;;
78648;SDS011;67962;47.310;9.642;2023-05-29T14:28:07;6.53;;;2.72;;
78648;SDS011;67962;47.310;9.642;2023-05-29T14:30:33;6.15;;;3.53;;
78648;SDS011;67962;47.310;9.642;2023-05-29T14:32:59;6.68;;;3.60;;
78648;SDS011;67962;47.310;9.642;2023-05-29T14:35:25;5.25;;;3.35;;
78648;SDS011;67962;47.310;9.642;2023-05-29T14:37:51;8.35;;;3.22;;
78648;SDS011;67962;47.310;9.642;2023-05-29T14:40:17;7.72;;;4.20;;
78648;SDS011;67962;47.310;9.642;2023-05-29T14:42:43;5.30;;;3.28;;
78648;SDS011;67962;47.310;9.642;2023-05-29T14:45:08;5.03;;;3.30;;
78648;SDS011;67962;47.310;9.642;2023-05-29T14:47:34;10.02;;;3.58;;
78648;SDS011;67962;47.310;9.642;2023-05-29T14:50:00;6.03;;;3.53;;
78648;SDS011;67962;47.310;9.642;2023-05-29T14:52:26;5.70;;;3.30;;
78648;SDS011;67962;47.310;9.642;2023-05-29T14:54:52;5.22;;;3.35;;
78648;SDS011;67962;47.310;9.642;2023-05-29T14:57:18;7.32;;;3.30;;
78648;SDS011;67962;47.310;9.642;2023-05-29T14:59:43;13.57;;;3.55;;
78648;SDS011;67962;47.310;9.642;2023-05-29T15:02:10;7.95;;;3.05;;
78648;SDS011;67962;47.310;9.642;2023-05-29T15:04:36;6.47;;;3.22;;
78648;SDS011;67962;47.310;9.642;2023-05-29T15:07:01;6.68;;;3.10;;
78648;SDS011;67962;47.310;9.642;2023-05-29T15:09:29;8.10;;;3.63;;
78648;SDS011;67962;47.310;9.642;2023-05-29T15:11:55;5.30;;;3.17;;
78648;SDS011;67962;47.310;9.642;2023-05-29T15:14:20;6.88;;;3.42;;
78648;SDS011;67962;47.310;9.642;2023-05-29T15:16:46;8.65;;;3.80;;
78648;SDS011;67962;47.310;9.642;2023-05-29T15:19:12;6.05;;;3.53;;
78648;SDS011;67962;47.310;9.642;2023-05-29T15:21:38;5.00;;;3.40;;
78648;SDS011;67962;47.310;9.642;2023-05-29T15:24:04;7.43;;;3.50;;
78648;SDS011;67962;47.310;9.642;2023-05-29T15:26:29;6.40;;;3.50;;